createdAt,value
2022-07-29T00:00:36.887Z,22
2022-07-29T00:01:36.884Z,22.1
2022-07-29T00:02:36.967Z,22.2
2022-07-29T00:03:36.965Z,22.2
2022-07-29T00:04:36.971Z,21.9
2022-07-29T00:05:36.899Z,21.7
2022-07-29T00:06:43.169Z,21.7
2022-07-29T00:07:36.890Z,21.6
2022-07-29T00:08:36.887Z,21.5
2022-07-29T00:09:50.654Z,21.3
2022-07-29T00:10:36.897Z,21.1
2022-07-29T00:11:36.898Z,21
2022-07-29T00:12:36.892Z,20.8
2022-07-29T00:13:36.904Z,20.7
2022-07-29T00:14:36.888Z,20.8
2022-07-29T00:15:36.968Z,20.9
2022-07-29T00:16:37.045Z,21
2022-07-29T00:17:36.887Z,21.5
2022-07-29T00:18:36.882Z,21.8
2022-07-29T00:19:36.905Z,22.1
2022-07-29T00:20:36.906Z,22.4
2022-07-29T00:21:36.902Z,22.6
2022-07-29T00:22:36.899Z,22.7
2022-07-29T00:23:37.051Z,22.9
2022-07-29T00:24:36.958Z,22.9
2022-07-29T00:25:36.899Z,23
2022-07-29T00:26:36.893Z,23
2022-07-29T00:27:36.908Z,23.1
2022-07-29T00:28:36.908Z,23.1
2022-07-29T00:29:36.934Z,22.4
2022-07-29T00:30:36.892Z,22.3
2022-07-29T00:31:36.938Z,21.7
2022-07-29T00:32:36.901Z,21.2
2022-07-29T00:33:36.904Z,21.3
2022-07-29T00:34:36.895Z,21.1
2022-07-29T00:35:36.895Z,20.7
2022-07-29T00:36:36.901Z,20.6
2022-07-29T00:37:36.911Z,20.5
2022-07-29T00:38:36.899Z,20.3
2022-07-29T00:39:36.906Z,20.1
2022-07-29T00:40:36.911Z,20.2
2022-07-29T00:41:36.897Z,20.1
2022-07-29T00:42:36.895Z,20
2022-07-29T00:43:36.907Z,19.8
2022-07-29T00:44:36.908Z,19.9
2022-07-29T00:45:36.900Z,20.3
2022-07-29T00:46:36.961Z,20.7
2022-07-29T00:47:36.918Z,21.2
2022-07-29T00:48:36.974Z,21.6
2022-07-29T00:49:36.899Z,21.9
2022-07-29T00:50:36.922Z,22.1
2022-07-29T00:51:36.905Z,22.3
2022-07-29T00:52:36.935Z,21.8
2022-07-29T00:53:36.922Z,21.4
2022-07-29T00:54:39.215Z,20.9
2022-07-29T00:55:36.885Z,20.4
2022-07-29T00:56:37.312Z,20.2
2022-07-29T00:57:36.902Z,20
2022-07-29T00:58:36.911Z,19.8
2022-07-29T00:59:36.901Z,19.8
2022-07-29T01:00:36.969Z,19.6
2022-07-29T01:01:36.939Z,19.7
2022-07-29T01:02:36.962Z,19.9
2022-07-29T01:03:36.907Z,20.2
2022-07-29T01:04:36.898Z,20
2022-07-29T01:05:48.465Z,19.9
2022-07-29T01:06:30.634Z,19.8
2022-07-29T01:07:36.909Z,19.8
2022-07-29T01:08:36.918Z,19.8
2022-07-29T01:09:46.438Z,19.6
2022-07-29T01:10:36.910Z,19.5
2022-07-29T01:11:36.908Z,19.5
2022-07-29T01:12:36.896Z,19.6
2022-07-29T01:13:36.901Z,19.6
2022-07-29T01:14:36.933Z,19.6
2022-07-29T01:15:36.943Z,19.6
2022-07-29T01:16:36.995Z,19.6
2022-07-29T01:17:36.905Z,19.6
2022-07-29T01:18:36.907Z,19.4
2022-07-29T01:19:36.901Z,19.4
2022-07-29T01:20:36.918Z,19.3
2022-07-29T01:21:36.906Z,19.3
2022-07-29T01:22:36.900Z,19.2
2022-07-29T01:23:36.918Z,19.3
2022-07-29T01:24:36.905Z,19.3
2022-07-29T01:25:36.899Z,19.4
2022-07-29T01:26:36.914Z,19.3
2022-07-29T01:27:36.903Z,19.2
2022-07-29T01:28:36.921Z,19.1
2022-07-29T01:29:40.441Z,19
2022-07-29T01:30:36.925Z,19
2022-07-29T01:31:38.464Z,19
2022-07-29T01:32:36.909Z,19
2022-07-29T01:33:36.922Z,19
2022-07-29T01:34:36.937Z,19
2022-07-29T01:35:36.903Z,19
2022-07-29T01:36:36.921Z,19.2
2022-07-29T01:37:36.929Z,19.1
2022-07-29T01:38:36.919Z,19.2
2022-07-29T01:39:36.950Z,19.3
2022-07-29T01:40:36.925Z,19.2
2022-07-29T01:41:36.910Z,19.3
2022-07-29T01:42:36.916Z,19.2
2022-07-29T01:43:36.914Z,19
2022-07-29T01:44:36.915Z,19
2022-07-29T01:45:36.931Z,19
2022-07-29T01:46:36.982Z,19
2022-07-29T01:47:36.927Z,19
2022-07-29T01:48:36.993Z,19
2022-07-29T01:49:36.918Z,18.9
2022-07-29T01:50:36.915Z,18.9
2022-07-29T01:51:36.924Z,18.8
2022-07-29T01:52:36.940Z,18.9
2022-07-29T01:53:38.064Z,19
2022-07-29T01:54:36.925Z,19.2
2022-07-29T01:55:36.916Z,20
2022-07-29T01:56:36.907Z,20.5
2022-07-29T01:57:36.912Z,20.9
2022-07-29T01:58:36.935Z,21.3
2022-07-29T01:59:36.907Z,21.6
2022-07-29T02:00:36.924Z,21.6
2022-07-29T02:01:37.003Z,21.4
2022-07-29T02:02:36.927Z,21.2
2022-07-29T02:03:36.911Z,20.9
2022-07-29T02:04:36.926Z,20.6
2022-07-29T02:05:36.940Z,20.3
2022-07-29T02:06:36.908Z,20
2022-07-29T02:07:36.920Z,19.8
2022-07-29T02:08:36.918Z,19.7
2022-07-29T02:09:36.909Z,19.5
2022-07-29T02:10:36.926Z,19.4
2022-07-29T02:11:36.946Z,19.1
2022-07-29T02:12:36.918Z,19.2
2022-07-29T02:13:36.914Z,19.3
2022-07-29T02:14:36.938Z,19.2
2022-07-29T02:15:36.930Z,19.2
2022-07-29T02:16:37.034Z,19.3
2022-07-29T02:17:38.834Z,19.6
2022-07-29T02:18:36.929Z,19.8
2022-07-29T02:19:36.949Z,19.9
2022-07-29T02:20:36.923Z,19.8
2022-07-29T02:21:36.993Z,19.6
2022-07-29T02:22:36.951Z,19.5
2022-07-29T02:23:45.285Z,19.5
2022-07-29T02:24:36.932Z,19.7
2022-07-29T02:25:38.406Z,19.5
2022-07-29T02:26:36.964Z,19.4
2022-07-29T02:27:36.939Z,19.4
2022-07-29T02:28:36.942Z,19.4
2022-07-29T02:29:36.956Z,19.6
2022-07-29T02:30:36.933Z,19.5
2022-07-29T02:31:37.000Z,19.5
2022-07-29T02:32:36.946Z,19.3
2022-07-29T02:33:36.931Z,19.2
2022-07-29T02:34:36.953Z,19.1
2022-07-29T02:35:36.924Z,19
2022-07-29T02:36:36.934Z,19.2
2022-07-29T02:37:36.941Z,19.2
2022-07-29T02:38:36.942Z,19
2022-07-29T02:39:36.925Z,19.1
2022-07-29T02:40:36.940Z,19.1
2022-07-29T02:41:36.956Z,19.1
2022-07-29T02:42:36.915Z,18.9
2022-07-29T02:43:36.939Z,19
2022-07-29T02:45:36.947Z,19
2022-07-29T02:46:36.988Z,19.1
2022-07-29T02:47:41.771Z,19
2022-07-29T02:48:37.002Z,19.2
2022-07-29T02:49:36.920Z,19.1
2022-07-29T02:50:36.931Z,19.4
2022-07-29T02:51:43.573Z,19.5
2022-07-29T02:52:36.945Z,20
2022-07-29T02:53:36.929Z,20.5
2022-07-29T02:54:36.936Z,20.8
2022-07-29T02:55:36.926Z,21.1
2022-07-29T02:56:36.944Z,21.1
2022-07-29T02:57:54.656Z,20.9
2022-07-29T02:58:36.935Z,21.3
2022-07-29T02:59:36.943Z,21.5
2022-07-29T03:00:36.938Z,21.7
2022-07-29T03:01:37.012Z,21.9
2022-07-29T03:02:36.931Z,22.1
2022-07-29T03:03:36.922Z,22.3
2022-07-29T03:04:36.975Z,22.4
2022-07-29T03:05:36.937Z,22.5
2022-07-29T03:06:38.467Z,22.5
2022-07-29T03:07:36.938Z,22.3
2022-07-29T03:08:36.937Z,21.8
2022-07-29T03:09:36.934Z,20.9
2022-07-29T03:10:37.008Z,20.1
2022-07-29T03:11:41.507Z,20.1
2022-07-29T03:12:36.944Z,20
2022-07-29T03:13:36.929Z,19.9
2022-07-29T03:14:36.944Z,19.8
2022-07-29T03:15:37.091Z,19.6
2022-07-29T03:16:41.138Z,19.6
2022-07-29T03:17:36.950Z,20.2
2022-07-29T03:18:36.944Z,20.6
2022-07-29T03:19:36.935Z,20.6
2022-07-29T03:20:36.943Z,20.4
2022-07-29T03:21:37.038Z,20.2
2022-07-29T03:22:36.977Z,19.8
2022-07-29T03:23:37.069Z,19.6
2022-07-29T03:24:36.939Z,19.5
2022-07-29T03:25:36.952Z,19.3
2022-07-29T03:26:36.942Z,19.1
2022-07-29T03:27:37.009Z,18.9
2022-07-29T03:28:36.950Z,18.8
2022-07-29T03:29:36.948Z,18.7
2022-07-29T03:30:36.947Z,18.8
2022-07-29T03:31:36.980Z,18.8
2022-07-29T03:32:36.932Z,19.4
2022-07-29T03:33:36.943Z,20
2022-07-29T03:34:36.939Z,20.5
2022-07-29T03:35:36.927Z,20.9
2022-07-29T03:36:36.935Z,21.3
2022-07-29T03:37:36.945Z,21.6
2022-07-29T03:38:36.944Z,21.8
2022-07-29T03:39:36.954Z,21.7
2022-07-29T03:40:36.951Z,21.2
2022-07-29T03:41:36.956Z,20.6
2022-07-29T03:42:36.950Z,20.4
2022-07-29T03:43:36.957Z,20.1
2022-07-29T03:44:36.953Z,19.8
2022-07-29T03:45:36.951Z,19.5
2022-07-29T03:46:37.034Z,19.2
2022-07-29T03:47:51.162Z,19
2022-07-29T03:48:36.985Z,19
2022-07-29T03:49:36.959Z,19
2022-07-29T03:50:36.946Z,19
2022-07-29T03:51:36.944Z,19.1
2022-07-29T03:52:36.963Z,19.1
2022-07-29T03:53:36.932Z,19.1
2022-07-29T03:54:36.952Z,19
2022-07-29T03:55:36.974Z,18.9
2022-07-29T03:56:36.943Z,18.6
2022-07-29T03:57:36.952Z,18.4
2022-07-29T03:58:36.938Z,18.3
2022-07-29T03:59:36.953Z,18.3
2022-07-29T04:00:36.952Z,18.4
2022-07-29T04:01:37.039Z,18.4
2022-07-29T04:02:36.950Z,18.4
2022-07-29T04:03:36.999Z,18.4
2022-07-29T04:04:36.951Z,18.4
2022-07-29T04:05:36.955Z,18.4
2022-07-29T04:06:36.952Z,18.4
2022-07-29T04:07:36.953Z,18.4
2022-07-29T04:08:36.958Z,18.3
2022-07-29T04:09:36.963Z,18.2
2022-07-29T04:10:36.986Z,18.2
2022-07-29T04:12:01.633Z,18.2
2022-07-29T04:12:36.943Z,18.2
2022-07-29T04:13:36.949Z,18.3
2022-07-29T04:14:36.953Z,18.4
2022-07-29T04:15:37.034Z,18.5
2022-07-29T04:16:36.950Z,18.5
2022-07-29T04:17:36.948Z,18.5
2022-07-29T04:18:36.977Z,18.5
2022-07-29T04:19:36.946Z,18.5
2022-07-29T04:20:36.944Z,18.6
2022-07-29T04:21:36.953Z,18.6
2022-07-29T04:22:36.954Z,18.6
2022-07-29T04:23:36.970Z,18.6
2022-07-29T04:24:36.958Z,18.5
2022-07-29T04:25:36.954Z,18.6
2022-07-29T04:26:36.973Z,18.7
2022-07-29T04:27:36.962Z,18.7
2022-07-29T04:28:36.950Z,18.7
2022-07-29T04:29:36.968Z,18.7
2022-07-29T04:30:36.951Z,18.7
2022-07-29T04:31:37.019Z,18.7
2022-07-29T04:32:36.963Z,18.7
2022-07-29T04:33:36.956Z,18.7
2022-07-29T04:34:36.946Z,18.7
2022-07-29T04:35:38.436Z,18.6
2022-07-29T04:36:36.958Z,18.7
2022-07-29T04:37:36.953Z,18.9
2022-07-29T04:38:36.983Z,18.8
2022-07-29T04:39:36.945Z,19
2022-07-29T04:40:38.631Z,19
2022-07-29T04:41:36.969Z,18.8
2022-07-29T04:42:43.981Z,18.9
2022-07-29T04:43:37.090Z,19
2022-07-29T04:44:37.175Z,19.1
2022-07-29T04:45:36.976Z,19.1
2022-07-29T04:46:37.178Z,19.2
2022-07-29T04:47:36.971Z,19.2
2022-07-29T04:48:37.075Z,19.1
2022-07-29T04:49:36.950Z,19.3
2022-07-29T04:50:36.952Z,19.2
2022-07-29T04:51:36.970Z,19.2
2022-07-29T04:52:36.964Z,19.3
2022-07-29T04:53:36.959Z,19.3
2022-07-29T04:54:36.954Z,19.4
2022-07-29T04:55:36.962Z,19.5
2022-07-29T04:56:36.969Z,19.5
2022-07-29T04:57:36.977Z,19.5
2022-07-29T04:58:36.959Z,19.6
2022-07-29T04:59:36.961Z,19.6
2022-07-29T05:00:36.963Z,19.5
2022-07-29T05:01:37.043Z,19.5
2022-07-29T05:02:37.004Z,19.4
2022-07-29T05:03:36.976Z,19.5
2022-07-29T05:04:36.962Z,19.5
2022-07-29T05:05:36.969Z,19.4
2022-07-29T05:06:36.969Z,19.6
2022-07-29T05:07:36.947Z,19.7
2022-07-29T05:08:36.972Z,19.9
2022-07-29T05:09:36.965Z,19.9
2022-07-29T05:10:36.963Z,19.9
2022-07-29T05:11:36.969Z,19.8
2022-07-29T05:12:36.958Z,19.9
2022-07-29T05:13:45.723Z,19.9
2022-07-29T05:14:36.961Z,20.1
2022-07-29T05:15:37.021Z,20.1
2022-07-29T05:16:36.956Z,20
2022-07-29T05:17:36.948Z,20.2
2022-07-29T05:18:36.966Z,20.1
2022-07-29T05:19:39.720Z,20.3
2022-07-29T05:20:36.954Z,20.3
2022-07-29T05:21:36.967Z,20.3
2022-07-29T05:22:36.960Z,20.3
2022-07-29T05:23:36.949Z,20.3
2022-07-29T05:24:36.959Z,20.2
2022-07-29T05:25:43.631Z,20.2
2022-07-29T05:26:36.950Z,20.1
2022-07-29T05:27:37.025Z,20.3
2022-07-29T05:28:36.974Z,20.3
2022-07-29T05:29:44.993Z,20.3
2022-07-29T05:30:37.025Z,20.4
2022-07-29T05:31:36.993Z,20.4
2022-07-29T05:32:36.976Z,20.2
2022-07-29T05:33:37.252Z,20.2
2022-07-29T05:34:36.978Z,20.1
2022-07-29T05:35:36.965Z,20
2022-07-29T05:36:36.976Z,20.1
2022-07-29T05:37:36.974Z,20.3
2022-07-29T05:38:37.277Z,20.4
2022-07-29T05:39:49.139Z,20.6
2022-07-29T05:40:36.971Z,20.4
2022-07-29T05:41:36.962Z,20.6
2022-07-29T05:42:36.962Z,20.8
2022-07-29T05:43:36.961Z,21
2022-07-29T05:44:36.976Z,21.1
2022-07-29T05:45:49.270Z,21.1
2022-07-29T05:46:37.278Z,20.9
2022-07-29T05:47:36.994Z,20.8
2022-07-29T05:48:37.029Z,21
2022-07-29T05:49:37.140Z,21.1
2022-07-29T05:50:36.967Z,21.2
2022-07-29T05:51:36.981Z,21.4
2022-07-29T05:52:36.979Z,21.5
2022-07-29T05:53:36.972Z,21.6
2022-07-29T05:54:36.974Z,21.5
2022-07-29T05:55:36.962Z,21.6
2022-07-29T05:56:36.957Z,21.7
2022-07-29T05:57:37.000Z,22
2022-07-29T05:58:36.969Z,22
2022-07-29T05:59:36.977Z,21.9
2022-07-29T06:00:36.969Z,22.1
2022-07-29T06:01:37.074Z,22.1
2022-07-29T06:02:36.973Z,22
2022-07-29T06:03:36.976Z,21.9
2022-07-29T06:04:37.032Z,22
2022-07-29T06:05:36.979Z,22.1
2022-07-29T06:06:36.979Z,21.9
2022-07-29T06:07:36.974Z,22
2022-07-29T06:08:36.964Z,22
2022-07-29T06:09:37.009Z,22
2022-07-29T06:10:36.978Z,21.9
2022-07-29T06:11:37.007Z,21.6
2022-07-29T06:12:36.978Z,21.8
2022-07-29T06:13:36.982Z,21.8
2022-07-29T06:14:36.977Z,21.7
2022-07-29T06:15:37.064Z,21.7
2022-07-29T06:16:37.058Z,21.9
2022-07-29T06:17:36.987Z,22
2022-07-29T06:18:36.985Z,22.2
2022-07-29T06:19:36.975Z,22.2
2022-07-29T06:20:36.985Z,22
2022-07-29T06:21:38.689Z,22
2022-07-29T06:23:36.988Z,22.1
2022-07-29T06:24:37.013Z,22.2
2022-07-29T06:25:36.984Z,22.1
2022-07-29T06:26:39.762Z,22
2022-07-29T06:27:36.986Z,22.1
2022-07-29T06:28:36.993Z,22.4
2022-07-29T06:29:36.982Z,22.5
2022-07-29T06:30:37.069Z,22.7
2022-07-29T06:31:36.988Z,22.7
2022-07-29T06:32:40.073Z,22.6
2022-07-29T06:33:37.001Z,22.7
2022-07-29T06:34:36.982Z,22.3
2022-07-29T06:35:41.018Z,22.5
2022-07-29T06:36:37.734Z,22.2
2022-07-29T06:37:38.148Z,22.2
2022-07-29T06:38:42.006Z,22.2
2022-07-29T06:39:36.993Z,22.4
2022-07-29T06:40:36.983Z,22.7
2022-07-29T06:41:36.979Z,22.9
2022-07-29T06:42:36.994Z,22.9
2022-07-29T06:43:50.207Z,23
2022-07-29T06:44:36.984Z,22.8
2022-07-29T06:45:37.017Z,23
2022-07-29T06:46:37.143Z,23.1
2022-07-29T06:47:36.982Z,23.3
2022-07-29T06:48:37.060Z,23.2
2022-07-29T06:49:36.980Z,23.2
2022-07-29T06:50:36.977Z,22.9
2022-07-29T06:51:37.009Z,22.9
2022-07-29T06:52:36.994Z,23.2
2022-07-29T06:53:36.983Z,23.5
2022-07-29T06:54:36.979Z,23.6
2022-07-29T06:55:36.988Z,23.8
2022-07-29T06:56:39.061Z,23.9
2022-07-29T06:57:37.003Z,24
2022-07-29T06:58:37.010Z,23.9
2022-07-29T06:59:36.990Z,23.8
2022-07-29T07:00:36.991Z,23.9
2022-07-29T07:01:37.076Z,23.8
2022-07-29T07:02:37.089Z,23.5
2022-07-29T07:03:37.015Z,23.6
2022-07-29T07:04:36.992Z,23.6
2022-07-29T07:05:37.009Z,23.8
2022-07-29T07:06:36.998Z,23.8
2022-07-29T07:07:36.992Z,23.7
2022-07-29T07:08:36.982Z,23.4
2022-07-29T07:09:39.971Z,23.2
2022-07-29T07:10:36.986Z,23.2
2022-07-29T07:11:36.987Z,23.3
2022-07-29T07:12:37.031Z,23.3
2022-07-29T07:13:37.088Z,23.1
2022-07-29T07:14:37.014Z,23.2
2022-07-29T07:15:39.142Z,23
2022-07-29T07:16:37.069Z,23
2022-07-29T07:17:36.994Z,23.1
2022-07-29T07:18:36.997Z,23.3
2022-07-29T07:19:36.999Z,23.5
2022-07-29T07:20:36.992Z,23.3
2022-07-29T07:21:36.988Z,23.4
2022-07-29T07:22:38.956Z,23.4
2022-07-29T07:23:37.008Z,23.4
2022-07-29T07:24:37.016Z,23.3
2022-07-29T07:25:37.014Z,23.4
2022-07-29T07:27:37.007Z,23.4
2022-07-29T07:28:36.994Z,23.5
2022-07-29T07:29:37.005Z,23.6
2022-07-29T07:30:37.007Z,23.4
2022-07-29T07:31:37.219Z,23.6
2022-07-29T07:32:36.988Z,23.8
2022-07-29T07:33:37.010Z,24
2022-07-29T07:34:37.005Z,24
2022-07-29T07:35:37.005Z,23.9
2022-07-29T07:36:36.997Z,23.9
2022-07-29T07:37:44.136Z,23.8
2022-07-29T07:38:36.991Z,23.9
2022-07-29T07:39:37.014Z,23.8
2022-07-29T07:40:37.006Z,23.5
2022-07-29T07:41:37.026Z,23.5
2022-07-29T07:42:37.015Z,23.6
2022-07-29T07:43:37.003Z,23.4
2022-07-29T07:44:57.222Z,23.4
2022-07-29T07:45:37.027Z,23.5
2022-07-29T07:46:37.003Z,23.6
2022-07-29T07:47:37.011Z,23.7
2022-07-29T07:48:37.175Z,23.8
2022-07-29T07:49:37.002Z,24
2022-07-29T07:50:37.013Z,23.9
2022-07-29T07:51:37.005Z,23.9
2022-07-29T07:52:37.020Z,23.8
2022-07-29T07:53:37.004Z,23.9
2022-07-29T07:54:37.025Z,23.9
2022-07-29T07:56:00.398Z,24
2022-07-29T07:56:37.002Z,24.2
2022-07-29T07:57:37.003Z,24.3
2022-07-29T07:58:37.023Z,24.2
2022-07-29T07:59:37.005Z,24.2
2022-07-29T08:00:37.014Z,24.1
2022-07-29T08:01:48.436Z,24
2022-07-29T08:02:37.133Z,24.1
2022-07-29T08:03:37.022Z,24
2022-07-29T08:04:37.018Z,24
2022-07-29T08:05:37.029Z,23.9
2022-07-29T08:06:37.032Z,23.8
2022-07-29T08:07:37.064Z,23.7
2022-07-29T08:08:37.017Z,23.8
2022-07-29T08:09:37.018Z,23.8
2022-07-29T08:10:37.000Z,23.9
2022-07-29T08:11:37.730Z,23.8
2022-07-29T08:12:37.035Z,23.8
2022-07-29T08:13:36.996Z,24
2022-07-29T08:14:37.010Z,23.8
2022-07-29T08:15:37.033Z,23.7
2022-07-29T08:16:37.059Z,23.8
2022-07-29T08:17:37.010Z,23.8
2022-07-29T08:18:37.007Z,23.8
2022-07-29T08:19:36.997Z,23.9
2022-07-29T08:20:37.032Z,23.8
2022-07-29T08:21:37.009Z,23.8
2022-07-29T08:22:37.020Z,23.7
2022-07-29T08:23:46.451Z,23.8
2022-07-29T08:24:37.016Z,23.8
2022-07-29T08:25:38.680Z,23.8
2022-07-29T08:26:37.023Z,23.9
2022-07-29T08:27:44.548Z,23.8
2022-07-29T08:28:37.027Z,23.9
2022-07-29T08:29:37.036Z,24
2022-07-29T08:30:37.021Z,23.9
2022-07-29T08:31:37.113Z,23.9
2022-07-29T08:32:53.276Z,24
2022-07-29T08:33:37.006Z,24
2022-07-29T08:34:37.018Z,24
2022-07-29T08:35:37.026Z,24.2
2022-07-29T08:36:37.014Z,24.3
2022-07-29T08:37:31.640Z,24.2
2022-07-29T08:38:37.026Z,24.2
2022-07-29T08:39:37.027Z,24.2
2022-07-29T08:40:37.036Z,24.5
2022-07-29T08:41:37.022Z,24.2
2022-07-29T08:42:37.004Z,24.3
2022-07-29T08:43:37.023Z,24
2022-07-29T08:44:37.018Z,24
2022-07-29T08:45:37.077Z,24
2022-07-29T08:46:37.017Z,24.1
2022-07-29T08:47:37.012Z,24.3
2022-07-29T08:48:37.084Z,24.5
2022-07-29T08:49:37.030Z,24.5
2022-07-29T08:50:37.263Z,24.4
2022-07-29T08:51:37.324Z,24.4
2022-07-29T08:52:37.030Z,24.5
2022-07-29T08:53:37.285Z,24.5
2022-07-29T08:54:37.019Z,24.5
2022-07-29T08:55:37.142Z,24.5
2022-07-29T08:56:37.024Z,24.5
2022-07-29T08:57:37.281Z,24.6
2022-07-29T08:58:38.406Z,24.6
2022-07-29T08:59:37.035Z,24.8
2022-07-29T09:00:37.045Z,25
2022-07-29T09:01:42.860Z,25.1
2022-07-29T09:02:37.023Z,25.3
2022-07-29T09:03:37.183Z,25.2
2022-07-29T09:04:37.023Z,25
2022-07-29T09:05:41.229Z,24.9
2022-07-29T09:06:37.056Z,24.7
2022-07-29T09:07:37.039Z,24.8
2022-07-29T09:08:37.035Z,24.6
2022-07-29T09:09:37.055Z,24.5
2022-07-29T09:10:37.028Z,24.6
2022-07-29T09:11:37.022Z,24.6
2022-07-29T09:12:38.208Z,24.6
2022-07-29T09:13:37.142Z,24.8
2022-07-29T09:14:37.024Z,24.8
2022-07-29T09:15:37.046Z,24.8
2022-07-29T09:16:52.269Z,24.6
2022-07-29T09:17:37.072Z,24.6
2022-07-29T09:18:37.032Z,24.8
2022-07-29T09:19:37.041Z,24.6
2022-07-29T09:20:37.027Z,24.8
2022-07-29T09:21:37.048Z,24.7
2022-07-29T09:22:41.718Z,24.7
2022-07-29T09:23:37.036Z,24.8
2022-07-29T09:24:37.041Z,25.1
2022-07-29T09:25:37.041Z,25.2
2022-07-29T09:26:37.030Z,25.4
2022-07-29T09:27:37.038Z,25.6
2022-07-29T09:28:37.035Z,25.7
2022-07-29T09:29:37.050Z,25.6
2022-07-29T09:30:37.048Z,25.5
2022-07-29T09:31:37.100Z,25.7
2022-07-29T09:32:37.048Z,25.9
2022-07-29T09:33:37.042Z,25.6
2022-07-29T09:34:37.035Z,25.2
2022-07-29T09:35:37.051Z,25.4
2022-07-29T09:36:37.043Z,25.4
2022-07-29T09:37:37.044Z,25.3
2022-07-29T09:38:37.048Z,25.2
2022-07-29T09:39:37.041Z,25.2
2022-07-29T09:40:37.057Z,25.1
2022-07-29T09:41:37.059Z,25.2
2022-07-29T09:42:37.043Z,25.2
2022-07-29T09:43:37.089Z,25.1
2022-07-29T09:44:37.030Z,25.3
2022-07-29T09:45:37.202Z,25.2
2022-07-29T09:46:37.163Z,25.2
2022-07-29T09:47:37.048Z,25.2
2022-07-29T09:48:37.090Z,25.2
2022-07-29T09:49:37.051Z,25.4
2022-07-29T09:50:37.040Z,25.5
2022-07-29T09:51:38.528Z,25.6
2022-07-29T09:52:37.052Z,25.7
2022-07-29T09:57:37.040Z,25.7
2022-07-29T09:58:37.048Z,25.7
2022-07-29T09:59:37.055Z,25.6
2022-07-29T10:00:37.097Z,25.5
2022-07-29T10:01:37.066Z,25.5
2022-07-29T10:02:37.064Z,25.5
2022-07-29T10:03:37.092Z,25.5
2022-07-29T10:04:37.054Z,25.7
2022-07-29T10:05:37.164Z,25.6
2022-07-29T10:06:37.059Z,25.7
2022-07-29T10:07:37.077Z,25.8
2022-07-29T10:08:37.069Z,25.9
2022-07-29T10:09:37.043Z,26
2022-07-29T10:10:37.056Z,26.1
2022-07-29T10:11:49.174Z,26.1
2022-07-29T10:12:37.069Z,26.1
2022-07-29T10:13:37.055Z,25.9
2022-07-29T10:14:37.064Z,25.9
2022-07-29T10:15:37.060Z,25.9
2022-07-29T10:16:37.190Z,25.9
2022-07-29T10:17:37.060Z,26.1
2022-07-29T10:18:37.080Z,26.3
2022-07-29T10:19:37.040Z,26.5
2022-07-29T10:20:37.050Z,26.5
2022-07-29T10:21:37.059Z,26.4
2022-07-29T10:23:46.134Z,26
2022-07-29T10:24:37.075Z,26.1
2022-07-29T10:25:37.066Z,26
2022-07-29T10:26:37.069Z,26.2
2022-07-29T10:27:37.077Z,25.9
2022-07-29T10:28:37.069Z,25.8
2022-07-29T10:29:37.064Z,25.8
2022-07-29T10:30:37.057Z,25.7
2022-07-29T10:31:37.175Z,25.8
2022-07-29T10:32:37.089Z,25.9
2022-07-29T10:33:37.055Z,25.8
2022-07-29T10:34:37.063Z,25.8
2022-07-29T10:35:37.065Z,25.9
2022-07-29T10:36:37.062Z,25.9
2022-07-29T10:37:37.078Z,25.9
2022-07-29T10:38:38.461Z,26.2
2022-07-29T10:39:41.702Z,26.2
2022-07-29T10:40:37.113Z,26.2
2022-07-29T10:41:43.970Z,26.1
2022-07-29T10:42:37.083Z,26.1
2022-07-29T10:43:37.072Z,26.2
2022-07-29T10:44:37.076Z,26.2
2022-07-29T10:45:37.105Z,26.2
2022-07-29T10:46:37.158Z,26.2
2022-07-29T10:47:37.073Z,26.3
2022-07-29T10:48:37.128Z,26.4
2022-07-29T10:49:37.169Z,26.4
2022-07-29T10:50:37.083Z,26.7
2022-07-29T10:51:37.063Z,26.7
2022-07-29T10:52:38.106Z,26.6
2022-07-29T10:53:37.057Z,26.7
2022-07-29T10:54:37.072Z,26.8
2022-07-29T10:55:37.079Z,26.6
2022-07-29T10:56:37.063Z,26.6
2022-07-29T10:57:53.839Z,26.5
2022-07-29T10:58:37.092Z,26.5
2022-07-29T10:59:37.077Z,26.5
2022-07-29T11:00:37.088Z,26.5
2022-07-29T11:01:39.024Z,26.5
2022-07-29T11:02:41.740Z,26.6
2022-07-29T11:03:37.172Z,26.5
2022-07-29T11:04:37.062Z,26.5
2022-07-29T11:05:40.786Z,26.6
2022-07-29T11:06:37.099Z,26.6
2022-07-29T11:07:46.446Z,26.7
2022-07-29T11:08:37.102Z,26.7
2022-07-29T11:09:38.307Z,26.7
2022-07-29T11:10:37.087Z,26.5
2022-07-29T11:11:37.068Z,26.5
2022-07-29T11:12:37.078Z,26.3
2022-07-29T11:13:41.087Z,26.2
2022-07-29T11:14:37.125Z,25.9
2022-07-29T11:15:37.082Z,25.5
2022-07-29T11:16:37.069Z,25.5
2022-07-29T11:17:47.255Z,25.4
2022-07-29T11:18:37.083Z,25.5
2022-07-29T11:19:37.091Z,25.5
2022-07-29T11:20:37.969Z,25.7
2022-07-29T11:21:55.391Z,25.8
2022-07-29T11:22:37.098Z,25.6
2022-07-29T11:23:37.535Z,25.8
2022-07-29T11:24:37.078Z,25.8
2022-07-29T11:25:50.306Z,25.8
2022-07-29T11:26:37.088Z,25.9
2022-07-29T11:27:37.105Z,25.9
2022-07-29T11:28:37.089Z,25.8
2022-07-29T11:29:40.020Z,25.7
2022-07-29T11:30:37.109Z,25.7
2022-07-29T11:31:37.084Z,25.8
2022-07-29T11:32:37.158Z,25.8
2022-07-29T11:33:54.625Z,25.8
2022-07-29T11:34:37.105Z,25.7
2022-07-29T11:35:39.874Z,25.9
2022-07-29T11:36:37.101Z,26
2022-07-29T11:37:42.372Z,26.2
2022-07-29T11:38:37.092Z,26.2
2022-07-29T11:39:37.774Z,26.3
2022-07-29T11:40:37.086Z,26.5
2022-07-29T11:41:37.111Z,26.3
2022-07-29T11:42:37.116Z,26.4
2022-07-29T11:43:37.083Z,26.5
2022-07-29T11:44:37.098Z,26.5
2022-07-29T11:45:44.050Z,26.5
2022-07-29T11:46:37.156Z,26.7
2022-07-29T11:47:38.310Z,26.8
2022-07-29T11:48:37.438Z,26.8
2022-07-29T11:49:37.151Z,26.8
2022-07-29T11:50:37.095Z,26.7
2022-07-29T11:51:37.100Z,26.4
2022-07-29T11:52:37.108Z,26.5
2022-07-29T11:53:37.111Z,26.5
2022-07-29T11:54:38.730Z,26.6
2022-07-29T11:55:37.117Z,26.7
2022-07-29T11:56:37.106Z,26.8
2022-07-29T11:57:37.359Z,26.8
2022-07-29T11:58:37.170Z,26.9
2022-07-29T11:59:37.109Z,26.9
2022-07-29T12:00:37.109Z,26.5
2022-07-29T12:01:37.122Z,26.4
2022-07-29T12:02:38.257Z,26.3
2022-07-29T12:03:37.364Z,26.3
2022-07-29T12:04:37.093Z,26.3
2022-07-29T12:05:37.176Z,26.1
2022-07-29T12:06:37.098Z,26.3
2022-07-29T12:07:37.104Z,26.3
2022-07-29T12:08:37.079Z,26.1
2022-07-29T12:09:40.318Z,26
2022-07-29T12:10:37.103Z,26
2022-07-29T12:11:37.087Z,26.2
2022-07-29T12:12:37.128Z,26.1
2022-07-29T12:13:38.087Z,26
2022-07-29T12:14:37.103Z,26
2022-07-29T12:15:46.260Z,26
2022-07-29T12:16:37.126Z,26
2022-07-29T12:17:37.116Z,26.1
2022-07-29T12:18:37.098Z,26.1
2022-07-29T12:19:37.094Z,26.1
2022-07-29T12:20:37.111Z,26.2
2022-07-29T12:21:37.090Z,26.4
2022-07-29T12:22:37.096Z,26.4
2022-07-29T12:23:37.097Z,26.4
2022-07-29T12:24:37.113Z,26.4
2022-07-29T12:25:37.163Z,26.5
2022-07-29T12:26:37.123Z,26.5
2022-07-29T12:27:40.267Z,26.6
2022-07-29T12:28:37.114Z,26.6
2022-07-29T12:29:37.101Z,26.7
2022-07-29T12:30:37.115Z,26.8
2022-07-29T12:31:42.921Z,26.8
2022-07-29T12:32:37.167Z,26.7
2022-07-29T12:33:37.108Z,26.4
2022-07-29T12:34:37.116Z,26.3
2022-07-29T12:35:37.171Z,26.3
2022-07-29T12:36:37.139Z,26.2
2022-07-29T12:37:41.133Z,26.1
2022-07-29T12:38:37.098Z,26.1
2022-07-29T12:39:37.113Z,26
2022-07-29T12:40:37.119Z,26
2022-07-29T12:41:37.099Z,25.9
2022-07-29T12:42:37.110Z,26.1
2022-07-29T12:43:37.148Z,26
2022-07-29T12:44:37.121Z,26
2022-07-29T12:45:37.119Z,25.9
2022-07-29T12:46:37.196Z,25.8
2022-07-29T12:47:37.140Z,25.6
2022-07-29T12:48:37.172Z,25.6
2022-07-29T12:49:38.085Z,25.6
2022-07-29T12:50:37.118Z,25.6
2022-07-29T12:51:37.124Z,25.7
2022-07-29T12:52:37.126Z,25.8
2022-07-29T12:53:37.113Z,26
2022-07-29T12:54:37.102Z,26.1
2022-07-29T12:55:37.135Z,26.1
2022-07-29T12:56:44.065Z,26.1
2022-07-29T12:57:37.118Z,26.2
2022-07-29T12:58:37.132Z,26.2
2022-07-29T12:59:37.129Z,26.3
2022-07-29T13:00:37.172Z,26.1
2022-07-29T13:01:37.121Z,26
2022-07-29T13:02:37.514Z,26.1
2022-07-29T13:03:37.125Z,26
2022-07-29T13:04:37.141Z,25.9
2022-07-29T13:05:37.105Z,26
2022-07-29T13:06:37.134Z,26
2022-07-29T13:07:54.174Z,26.1
2022-07-29T13:08:37.133Z,26
2022-07-29T13:09:37.127Z,26
2022-07-29T13:10:37.136Z,26.1
2022-07-29T13:11:37.114Z,25.9
2022-07-29T13:12:37.126Z,25.8
2022-07-29T13:13:37.137Z,25.9
2022-07-29T13:14:37.159Z,26
2022-07-29T13:15:37.142Z,25.9
2022-07-29T13:16:37.185Z,26
2022-07-29T13:17:37.161Z,25.7
2022-07-29T13:18:37.127Z,25.8
2022-07-29T13:19:37.168Z,25.8
2022-07-29T13:20:37.127Z,25.9
2022-07-29T13:21:37.164Z,26.1
2022-07-29T13:23:38.431Z,25.7
2022-07-29T13:24:37.129Z,25.5
2022-07-29T13:25:37.153Z,25.6
2022-07-29T13:26:37.136Z,25.7
2022-07-29T13:27:37.152Z,25.7
2022-07-29T13:28:37.129Z,25.8
2022-07-29T13:29:37.123Z,25.7
2022-07-29T13:30:37.158Z,25.5
2022-07-29T13:31:37.130Z,25.6
2022-07-29T13:32:37.157Z,25.6
2022-07-29T13:33:37.139Z,25.7
2022-07-29T13:34:37.133Z,25.7